sensor_id;sensor_type;location;lat;lon;timestamp;P1;durP1;ratioP1;P2;durP2;ratioP2
10244;SDS011;5167;52.164;10.530;2022-08-19T00:01:21;12.52;;;7.63;;
10244;SDS011;5167;52.164;10.530;2022-08-19T00:03:47;10.82;;;6.28;;
10244;SDS011;5167;52.164;10.530;2022-08-19T00:06:13;9.88;;;7.03;;
10244;SDS011;5167;52.164;10.530;2022-08-19T00:08:39;12.00;;;7.28;;
10244;SDS011;5167;52.164;10.530;2022-08-19T00:11:05;11.25;;;6.88;;
10244;SDS011;5167;52.164;10.530;2022-08-19T00:13:31;12.30;;;6.30;;
10244;SDS011;5167;52.164;10.530;2022-08-19T00:15:57;11.55;;;6.90;;
10244;SDS011;5167;52.164;10.530;2022-08-19T00:18:23;14.65;;;6.78;;
10244;SDS011;5167;52.164;10.530;2022-08-19T00:20:49;10.63;;;6.97;;
10244;SDS011;5167;52.164;10.530;2022-08-19T00:23:15;10.68;;;6.93;;
10244;SDS011;5167;52.164;10.530;2022-08-19T00:25:40;13.05;;;7.95;;
10244;SDS011;5167;52.164;10.530;2022-08-19T00:28:06;13.07;;;6.93;;
10244;SDS011;5167;52.164;10.530;2022-08-19T00:30:32;11.85;;;7.18;;
10244;SDS011;5167;52.164;10.530;2022-08-19T00:32:57;10.85;;;6.82;;
10244;SDS011;5167;52.164;10.530;2022-08-19T00:35:24;12.57;;;7.32;;
10244;SDS011;5167;52.164;10.530;2022-08-19T00:37:52;9.38;;;6.68;;
10244;SDS011;5167;52.164;10.530;2022-08-19T00:40:18;11.43;;;6.65;;
10244;SDS011;5167;52.164;10.530;2022-08-19T00:42:44;14.18;;;6.95;;
10244;SDS011;5167;52.164;10.530;2022-08-19T00:45:14;9.82;;;6.43;;
10244;SDS011;5167;52.164;10.530;2022-08-19T00:47:42;9.00;;;6.93;;
10244;SDS011;5167;52.164;10.530;2022-08-19T00:50:09;10.65;;;6.82;;
10244;SDS011;5167;52.164;10.530;2022-08-19T00:52:42;10.90;;;6.97;;
10244;SDS011;5167;52.164;10.530;2022-08-19T00:55:10;8.68;;;6.63;;
10244;SDS011;5167;52.164;10.530;2022-08-19T00:57:41;10.27;;;6.28;;
10244;SDS011;5167;52.164;10.530;2022-08-19T01:00:12;9.93;;;6.35;;
10244;SDS011;5167;52.164;10.530;2022-08-19T01:02:41;9.10;;;6.10;;
10244;SDS011;5167;52.164;10.530;2022-08-19T01:05:08;13.00;;;6.32;;
10244;SDS011;5167;52.164;10.530;2022-08-19T01:07:41;7.95;;;6.07;;
10244;SDS011;5167;52.164;10.530;2022-08-19T01:10:08;11.57;;;6.57;;
10244;SDS011;5167;52.164;10.530;2022-08-19T01:12:39;9.00;;;6.70;;
10244;SDS011;5167;52.164;10.530;2022-08-19T01:15:06;10.20;;;6.15;;
10244;SDS011;5167;52.164;10.530;2022-08-19T01:17:34;10.13;;;6.05;;
10244;SDS011;5167;52.164;10.530;2022-08-19T01:20:03;10.52;;;6.75;;
10244;SDS011;5167;52.164;10.530;2022-08-19T01:22:34;12.05;;;6.40;;
10244;SDS011;5167;52.164;10.530;2022-08-19T01:25:07;8.85;;;6.45;;
10244;SDS011;5167;52.164;10.530;2022-08-19T01:27:37;11.13;;;6.60;;
10244;SDS011;5167;52.164;10.530;2022-08-19T01:30:08;11.63;;;6.20;;
10244;SDS011;5167;52.164;10.530;2022-08-19T01:32:36;9.35;;;6.18;;
10244;SDS011;5167;52.164;10.530;2022-08-19T01:35:02;9.98;;;6.38;;
10244;SDS011;5167;52.164;10.530;2022-08-19T01:37:29;9.40;;;6.68;;
10244;SDS011;5167;52.164;10.530;2022-08-19T01:40:06;9.27;;;6.60;;
10244;SDS011;5167;52.164;10.530;2022-08-19T01:42:32;7.70;;;6.13;;
10244;SDS011;5167;52.164;10.530;2022-08-19T01:44:59;13.90;;;6.38;;
10244;SDS011;5167;52.164;10.530;2022-08-19T01:47:25;6.93;;;5.78;;
10244;SDS011;5167;52.164;10.530;2022-08-19T01:49:50;10.38;;;5.50;;
10244;SDS011;5167;52.164;10.530;2022-08-19T01:52:16;11.00;;;6.85;;
10244;SDS011;5167;52.164;10.530;2022-08-19T01:54:41;9.15;;;5.90;;
10244;SDS011;5167;52.164;10.530;2022-08-19T01:57:09;12.23;;;6.35;;
10244;SDS011;5167;52.164;10.530;2022-08-19T01:59:37;7.55;;;6.65;;
10244;SDS011;5167;52.164;10.530;2022-08-19T02:02:04;8.13;;;6.07;;
10244;SDS011;5167;52.164;10.530;2022-08-19T02:04:33;9.52;;;5.75;;
10244;SDS011;5167;52.164;10.530;2022-08-19T02:07:00;9.82;;;6.22;;
10244;SDS011;5167;52.164;10.530;2022-08-19T02:09:26;10.23;;;6.47;;
10244;SDS011;5167;52.164;10.530;2022-08-19T02:11:52;9.73;;;6.43;;
10244;SDS011;5167;52.164;10.530;2022-08-19T02:14:18;9.77;;;5.60;;
10244;SDS011;5167;52.164;10.530;2022-08-19T02:16:43;10.43;;;6.28;;
10244;SDS011;5167;52.164;10.530;2022-08-19T02:19:09;9.55;;;6.20;;
10244;SDS011;5167;52.164;10.530;2022-08-19T02:21:35;8.57;;;5.88;;
10244;SDS011;5167;52.164;10.530;2022-08-19T02:24:01;12.23;;;7.35;;
10244;SDS011;5167;52.164;10.530;2022-08-19T02:26:27;8.95;;;6.03;;
10244;SDS011;5167;52.164;10.530;2022-08-19T02:28:53;12.73;;;6.68;;
10244;SDS011;5167;52.164;10.530;2022-08-19T02:31:20;12.27;;;6.57;;
10244;SDS011;5167;52.164;10.530;2022-08-19T02:33:48;10.23;;;6.63;;
10244;SDS011;5167;52.164;10.530;2022-08-19T02:36:14;12.20;;;6.35;;
10244;SDS011;5167;52.164;10.530;2022-08-19T02:38:41;15.23;;;7.43;;
10244;SDS011;5167;52.164;10.530;2022-08-19T02:41:19;15.75;;;6.97;;
10244;SDS011;5167;52.164;10.530;2022-08-19T02:43:47;12.93;;;7.03;;
10244;SDS011;5167;52.164;10.530;2022-08-19T02:46:15;14.63;;;7.78;;
10244;SDS011;5167;52.164;10.530;2022-08-19T02:48:46;14.32;;;6.53;;
10244;SDS011;5167;52.164;10.530;2022-08-19T02:51:20;20.13;;;9.20;;
10244;SDS011;5167;52.164;10.530;2022-08-19T02:53:50;11.52;;;7.07;;
10244;SDS011;5167;52.164;10.530;2022-08-19T02:56:16;10.57;;;7.30;;
10244;SDS011;5167;52.164;10.530;2022-08-19T02:58:43;8.27;;;6.10;;
10244;SDS011;5167;52.164;10.530;2022-08-19T03:01:09;16.33;;;7.65;;
10244;SDS011;5167;52.164;10.530;2022-08-19T03:03:35;12.75;;;7.57;;
10244;SDS011;5167;52.164;10.530;2022-08-19T03:06:09;11.60;;;6.55;;
10244;SDS011;5167;52.164;10.530;2022-08-19T03:08:38;14.13;;;8.07;;
10244;SDS011;5167;52.164;10.530;2022-08-19T03:11:05;11.95;;;7.72;;
10244;SDS011;5167;52.164;10.530;2022-08-19T03:13:30;21.05;;;12.02;;
10244;SDS011;5167;52.164;10.530;2022-08-19T03:15:56;20.70;;;10.35;;
10244;SDS011;5167;52.164;10.530;2022-08-19T03:18:22;12.70;;;7.78;;
10244;SDS011;5167;52.164;10.530;2022-08-19T03:20:48;11.25;;;7.43;;
10244;SDS011;5167;52.164;10.530;2022-08-19T03:23:17;11.63;;;7.80;;
10244;SDS011;5167;52.164;10.530;2022-08-19T03:25:44;12.85;;;7.63;;
10244;SDS011;5167;52.164;10.530;2022-08-19T03:28:11;12.80;;;6.38;;
10244;SDS011;5167;52.164;10.530;2022-08-19T03:30:39;14.38;;;8.02;;
10244;SDS011;5167;52.164;10.530;2022-08-19T03:33:06;11.02;;;7.25;;
10244;SDS011;5167;52.164;10.530;2022-08-19T03:35:36;16.73;;;6.97;;
10244;SDS011;5167;52.164;10.530;2022-08-19T03:38:05;15.75;;;7.82;;
10244;SDS011;5167;52.164;10.530;2022-08-19T03:40:32;11.27;;;6.68;;
10244;SDS011;5167;52.164;10.530;2022-08-19T03:43:01;14.07;;;7.03;;
10244;SDS011;5167;52.164;10.530;2022-08-19T03:45:27;9.13;;;6.82;;
10244;SDS011;5167;52.164;10.530;2022-08-19T03:47:53;11.40;;;6.53;;
10244;SDS011;5167;52.164;10.530;2022-08-19T03:50:19;10.27;;;7.07;;
10244;SDS011;5167;52.164;10.530;2022-08-19T03:52:51;12.73;;;6.40;;
10244;SDS011;5167;52.164;10.530;2022-08-19T03:55:17;9.10;;;6.13;;
10244;SDS011;5167;52.164;10.530;2022-08-19T03:57:43;13.48;;;7.05;;
10244;SDS011;5167;52.164;10.530;2022-08-19T04:00:10;10.68;;;6.93;;
10244;SDS011;5167;52.164;10.530;2022-08-19T04:02:37;12.95;;;6.90;;
10244;SDS011;5167;52.164;10.530;2022-08-19T04:05:02;11.75;;;6.95;;
10244;SDS011;5167;52.164;10.530;2022-08-19T04:07:28;9.75;;;6.72;;
10244;SDS011;5167;52.164;10.530;2022-08-19T04:09:54;12.93;;;7.40;;
10244;SDS011;5167;52.164;10.530;2022-08-19T04:12:19;10.75;;;6.93;;
10244;SDS011;5167;52.164;10.530;2022-08-19T04:14:45;16.02;;;6.45;;
10244;SDS011;5167;52.164;10.530;2022-08-19T04:17:11;10.93;;;5.88;;
10244;SDS011;5167;52.164;10.530;2022-08-19T04:19:39;8.60;;;6.93;;
10244;SDS011;5167;52.164;10.530;2022-08-19T04:22:05;14.00;;;7.53;;
10244;SDS011;5167;52.164;10.530;2022-08-19T04:24:31;15.68;;;7.57;;
10244;SDS011;5167;52.164;10.530;2022-08-19T04:27:01;13.75;;;6.70;;
10244;SDS011;5167;52.164;10.530;2022-08-19T04:29:27;12.35;;;6.97;;
10244;SDS011;5167;52.164;10.530;2022-08-19T04:31:54;13.05;;;7.57;;
10244;SDS011;5167;52.164;10.530;2022-08-19T04:34:22;16.40;;;7.25;;
10244;SDS011;5167;52.164;10.530;2022-08-19T04:36:50;12.15;;;7.28;;
10244;SDS011;5167;52.164;10.530;2022-08-19T04:39:18;11.20;;;7.68;;
10244;SDS011;5167;52.164;10.530;2022-08-19T04:41:46;14.68;;;7.70;;
10244;SDS011;5167;52.164;10.530;2022-08-19T04:44:32;11.73;;;7.07;;
10244;SDS011;5167;52.164;10.530;2022-08-19T04:46:59;12.82;;;7.18;;
10244;SDS011;5167;52.164;10.530;2022-08-19T04:49:25;11.18;;;7.28;;
10244;SDS011;5167;52.164;10.530;2022-08-19T04:51:52;13.10;;;6.80;;
10244;SDS011;5167;52.164;10.530;2022-08-19T04:54:22;11.88;;;7.85;;
10244;SDS011;5167;52.164;10.530;2022-08-19T04:56:50;10.73;;;7.20;;
10244;SDS011;5167;52.164;10.530;2022-08-19T04:59:17;12.52;;;7.32;;
10244;SDS011;5167;52.164;10.530;2022-08-19T05:01:44;14.63;;;7.50;;
10244;SDS011;5167;52.164;10.530;2022-08-19T05:04:13;11.02;;;7.10;;
10244;SDS011;5167;52.164;10.530;2022-08-19T05:06:39;10.68;;;6.65;;
10244;SDS011;5167;52.164;10.530;2022-08-19T05:09:04;12.23;;;7.53;;
10244;SDS011;5167;52.164;10.530;2022-08-19T05:11:34;10.65;;;7.00;;
10244;SDS011;5167;52.164;10.530;2022-08-19T05:14:04;9.93;;;7.55;;
10244;SDS011;5167;52.164;10.530;2022-08-19T05:16:30;9.05;;;6.63;;
10244;SDS011;5167;52.164;10.530;2022-08-19T05:18:55;11.77;;;6.75;;
10244;SDS011;5167;52.164;10.530;2022-08-19T05:21:40;9.82;;;6.32;;
10244;SDS011;5167;52.164;10.530;2022-08-19T05:24:26;14.93;;;7.43;;
10244;SDS011;5167;52.164;10.530;2022-08-19T05:26:53;16.30;;;7.43;;
10244;SDS011;5167;52.164;10.530;2022-08-19T05:29:22;11.75;;;7.15;;
10244;SDS011;5167;52.164;10.530;2022-08-19T05:31:49;11.57;;;7.00;;
10244;SDS011;5167;52.164;10.530;2022-08-19T05:34:15;11.65;;;6.57;;
10244;SDS011;5167;52.164;10.530;2022-08-19T05:36:42;7.70;;;5.88;;
10244;SDS011;5167;52.164;10.530;2022-08-19T05:39:12;11.90;;;6.28;;
10244;SDS011;5167;52.164;10.530;2022-08-19T05:41:44;11.23;;;6.90;;
10244;SDS011;5167;52.164;10.530;2022-08-19T05:44:11;9.85;;;6.93;;
10244;SDS011;5167;52.164;10.530;2022-08-19T05:46:38;8.30;;;5.90;;
10244;SDS011;5167;52.164;10.530;2022-08-19T05:49:07;10.30;;;6.80;;
10244;SDS011;5167;52.164;10.530;2022-08-19T05:51:34;16.08;;;6.80;;
10244;SDS011;5167;52.164;10.530;2022-08-19T05:54:01;10.43;;;7.05;;
10244;SDS011;5167;52.164;10.530;2022-08-19T05:56:28;12.70;;;6.95;;
10244;SDS011;5167;52.164;10.530;2022-08-19T05:58:55;10.02;;;6.63;;
10244;SDS011;5167;52.164;10.530;2022-08-19T06:01:21;11.32;;;6.30;;
10244;SDS011;5167;52.164;10.530;2022-08-19T06:03:48;10.95;;;6.35;;
10244;SDS011;5167;52.164;10.530;2022-08-19T06:06:14;17.17;;;7.53;;
10244;SDS011;5167;52.164;10.530;2022-08-19T06:08:40;14.50;;;7.28;;
10244;SDS011;5167;52.164;10.530;2022-08-19T06:11:11;10.55;;;6.70;;
10244;SDS011;5167;52.164;10.530;2022-08-19T06:13:49;11.98;;;7.65;;
10244;SDS011;5167;52.164;10.530;2022-08-19T06:16:18;9.82;;;6.40;;
10244;SDS011;5167;52.164;10.530;2022-08-19T06:18:54;10.38;;;6.22;;
10244;SDS011;5167;52.164;10.530;2022-08-19T06:21:23;11.05;;;6.60;;
10244;SDS011;5167;52.164;10.530;2022-08-19T06:23:51;7.90;;;6.55;;
10244;SDS011;5167;52.164;10.530;2022-08-19T06:26:17;9.73;;;6.25;;
10244;SDS011;5167;52.164;10.530;2022-08-19T06:28:44;10.30;;;6.03;;
10244;SDS011;5167;52.164;10.530;2022-08-19T06:31:33;10.20;;;5.72;;
10244;SDS011;5167;52.164;10.530;2022-08-19T06:33:59;11.65;;;5.82;;
10244;SDS011;5167;52.164;10.530;2022-08-19T06:36:28;12.52;;;6.70;;
10244;SDS011;5167;52.164;10.530;2022-08-19T06:38:58;10.30;;;5.80;;
10244;SDS011;5167;52.164;10.530;2022-08-19T06:41:31;7.13;;;5.47;;
10244;SDS011;5167;52.164;10.530;2022-08-19T06:44:00;10.50;;;5.63;;
10244;SDS011;5167;52.164;10.530;2022-08-19T06:46:26;11.68;;;5.80;;
10244;SDS011;5167;52.164;10.530;2022-08-19T06:48:52;11.73;;;5.40;;
10244;SDS011;5167;52.164;10.530;2022-08-19T06:51:19;6.60;;;5.70;;
10244;SDS011;5167;52.164;10.530;2022-08-19T06:53:47;8.52;;;5.60;;
10244;SDS011;5167;52.164;10.530;2022-08-19T06:56:15;11.63;;;5.50;;
10244;SDS011;5167;52.164;10.530;2022-08-19T06:58:43;9.40;;;4.82;;
10244;SDS011;5167;52.164;10.530;2022-08-19T07:01:09;7.90;;;4.50;;
10244;SDS011;5167;52.164;10.530;2022-08-19T07:03:35;6.60;;;5.07;;
10244;SDS011;5167;52.164;10.530;2022-08-19T07:06:06;8.50;;;4.97;;
10244;SDS011;5167;52.164;10.530;2022-08-19T07:08:37;9.40;;;5.43;;
10244;SDS011;5167;52.164;10.530;2022-08-19T07:11:09;11.38;;;4.97;;
10244;SDS011;5167;52.164;10.530;2022-08-19T07:13:38;6.57;;;5.00;;
10244;SDS011;5167;52.164;10.530;2022-08-19T07:16:05;7.95;;;4.82;;
10244;SDS011;5167;52.164;10.530;2022-08-19T07:18:31;6.57;;;4.72;;
10244;SDS011;5167;52.164;10.530;2022-08-19T07:21:12;7.13;;;4.28;;
10244;SDS011;5167;52.164;10.530;2022-08-19T07:23:40;4.95;;;3.95;;
10244;SDS011;5167;52.164;10.530;2022-08-19T07:26:19;7.72;;;4.20;;
10244;SDS011;5167;52.164;10.530;2022-08-19T07:28:47;5.07;;;4.00;;
10244;SDS011;5167;52.164;10.530;2022-08-19T07:31:14;7.47;;;3.83;;
10244;SDS011;5167;52.164;10.530;2022-08-19T07:33:46;9.10;;;4.15;;
10244;SDS011;5167;52.164;10.530;2022-08-19T07:36:14;4.45;;;3.70;;
10244;SDS011;5167;52.164;10.530;2022-08-19T07:38:42;5.82;;;4.10;;
10244;SDS011;5167;52.164;10.530;2022-08-19T07:41:10;10.68;;;4.28;;
10244;SDS011;5167;52.164;10.530;2022-08-19T07:43:38;4.15;;;3.70;;
10244;SDS011;5167;52.164;10.530;2022-08-19T07:46:04;6.85;;;4.10;;
10244;SDS011;5167;52.164;10.530;2022-08-19T07:48:30;6.00;;;4.18;;
10244;SDS011;5167;52.164;10.530;2022-08-19T07:50:57;6.45;;;3.47;;
10244;SDS011;5167;52.164;10.530;2022-08-19T07:53:27;7.45;;;3.08;;
10244;SDS011;5167;52.164;10.530;2022-08-19T07:55:54;5.57;;;4.28;;
10244;SDS011;5167;52.164;10.530;2022-08-19T07:58:29;9.40;;;3.85;;
10244;SDS011;5167;52.164;10.530;2022-08-19T08:00:56;6.10;;;3.70;;
10244;SDS011;5167;52.164;10.530;2022-08-19T08:03:22;5.78;;;3.35;;
10244;SDS011;5167;52.164;10.530;2022-08-19T08:06:08;4.85;;;4.03;;
10244;SDS011;5167;52.164;10.530;2022-08-19T08:08:52;4.22;;;3.60;;
10244;SDS011;5167;52.164;10.530;2022-08-19T08:11:48;4.85;;;3.58;;
10244;SDS011;5167;52.164;10.530;2022-08-19T08:14:21;5.25;;;4.05;;
10244;SDS011;5167;52.164;10.530;2022-08-19T08:16:49;6.15;;;3.58;;
10244;SDS011;5167;52.164;10.530;2022-08-19T08:19:19;5.80;;;3.92;;
10244;SDS011;5167;52.164;10.530;2022-08-19T08:21:48;5.95;;;4.00;;
10244;SDS011;5167;52.164;10.530;2022-08-19T08:24:15;4.75;;;3.65;;
10244;SDS011;5167;52.164;10.530;2022-08-19T08:26:41;3.95;;;3.10;;
10244;SDS011;5167;52.164;10.530;2022-08-19T08:29:08;4.65;;;3.65;;
10244;SDS011;5167;52.164;10.530;2022-08-19T08:31:38;4.03;;;3.35;;
10244;SDS011;5167;52.164;10.530;2022-08-19T08:34:05;4.07;;;3.38;;
10244;SDS011;5167;52.164;10.530;2022-08-19T08:36:31;7.50;;;4.20;;
10244;SDS011;5167;52.164;10.530;2022-08-19T08:39:00;4.57;;;3.17;;
10244;SDS011;5167;52.164;10.530;2022-08-19T08:44:53;7.60;;;3.78;;
10244;SDS011;5167;52.164;10.530;2022-08-19T08:47:01;5.95;;;3.53;;
10244;SDS011;5167;52.164;10.530;2022-08-19T08:52:25;5.18;;;3.55;;
10244;SDS011;5167;52.164;10.530;2022-08-19T08:54:54;4.53;;;3.22;;
10244;SDS011;5167;52.164;10.530;2022-08-19T08:59:53;10.68;;;3.25;;
10244;SDS011;5167;52.164;10.530;2022-08-19T09:02:21;5.93;;;3.10;;
10244;SDS011;5167;52.164;10.530;2022-08-19T09:04:47;4.53;;;3.60;;
10244;SDS011;5167;52.164;10.530;2022-08-19T09:15:32;4.18;;;3.03;;
10244;SDS011;5167;52.164;10.530;2022-08-19T09:18:19;6.45;;;3.90;;
10244;SDS011;5167;52.164;10.530;2022-08-19T09:20:45;6.55;;;3.30;;
10244;SDS011;5167;52.164;10.530;2022-08-19T09:23:14;8.55;;;3.83;;
10244;SDS011;5167;52.164;10.530;2022-08-19T09:25:40;5.50;;;3.95;;
10244;SDS011;5167;52.164;10.530;2022-08-19T09:28:06;5.00;;;3.83;;
10244;SDS011;5167;52.164;10.530;2022-08-19T09:30:33;5.88;;;4.10;;
10244;SDS011;5167;52.164;10.530;2022-08-19T09:33:04;5.32;;;4.32;;
10244;SDS011;5167;52.164;10.530;2022-08-19T09:35:30;8.20;;;4.47;;
10244;SDS011;5167;52.164;10.530;2022-08-19T09:37:56;7.50;;;4.28;;
10244;SDS011;5167;52.164;10.530;2022-08-19T09:40:23;6.03;;;4.28;;
10244;SDS011;5167;52.164;10.530;2022-08-19T09:42:49;5.35;;;4.80;;
10244;SDS011;5167;52.164;10.530;2022-08-19T09:45:16;6.05;;;5.00;;
10244;SDS011;5167;52.164;10.530;2022-08-19T09:47:45;12.38;;;6.57;;
10244;SDS011;5167;52.164;10.530;2022-08-19T09:50:11;7.30;;;6.00;;
10244;SDS011;5167;52.164;10.530;2022-08-19T09:52:37;9.98;;;7.03;;
10244;SDS011;5167;52.164;10.530;2022-08-19T09:55:07;9.23;;;7.82;;
10244;SDS011;5167;52.164;10.530;2022-08-19T09:57:34;13.20;;;9.20;;
10244;SDS011;5167;52.164;10.530;2022-08-19T10:00:00;12.43;;;8.98;;
10244;SDS011;5167;52.164;10.530;2022-08-19T10:02:26;10.38;;;8.13;;
10244;SDS011;5167;52.164;10.530;2022-08-19T10:04:52;11.52;;;7.72;;
10244;SDS011;5167;52.164;10.530;2022-08-19T10:07:36;9.52;;;7.63;;
10244;SDS011;5167;52.164;10.530;2022-08-19T10:10:03;10.60;;;6.97;;
10244;SDS011;5167;52.164;10.530;2022-08-19T10:12:31;11.20;;;8.50;;
10244;SDS011;5167;52.164;10.530;2022-08-19T10:14:58;11.70;;;9.23;;
10244;SDS011;5167;52.164;10.530;2022-08-19T10:17:24;9.65;;;7.50;;
10244;SDS011;5167;52.164;10.530;2022-08-19T10:19:50;10.98;;;7.55;;
10244;SDS011;5167;52.164;10.530;2022-08-19T10:22:17;11.57;;;7.50;;
10244;SDS011;5167;52.164;10.530;2022-08-19T10:24:43;9.40;;;7.43;;
10244;SDS011;5167;52.164;10.530;2022-08-19T10:27:12;11.40;;;7.22;;
10244;SDS011;5167;52.164;10.530;2022-08-19T10:29:39;10.23;;;7.65;;
10244;SDS011;5167;52.164;10.530;2022-08-19T10:32:05;9.05;;;7.20;;
10244;SDS011;5167;52.164;10.530;2022-08-19T10:34:33;12.13;;;7.20;;
10244;SDS011;5167;52.164;10.530;2022-08-19T10:37:01;7.68;;;6.22;;
10244;SDS011;5167;52.164;10.530;2022-08-19T10:39:32;8.48;;;6.50;;
10244;SDS011;5167;52.164;10.530;2022-08-19T10:41:59;8.73;;;6.07;;
10244;SDS011;5167;52.164;10.530;2022-08-19T10:44:31;10.90;;;6.03;;
10244;SDS011;5167;52.164;10.530;2022-08-19T10:46:57;10.50;;;5.55;;
10244;SDS011;5167;52.164;10.530;2022-08-19T10:49:23;7.85;;;5.25;;
10244;SDS011;5167;52.164;10.530;2022-08-19T10:51:49;7.03;;;5.15;;
10244;SDS011;5167;52.164;10.530;2022-08-19T10:54:33;7.47;;;6.05;;
10244;SDS011;5167;52.164;10.530;2022-08-19T10:57:17;7.07;;;5.10;;
10244;SDS011;5167;52.164;10.530;2022-08-19T10:59:43;9.68;;;5.82;;
10244;SDS011;5167;52.164;10.530;2022-08-19T11:02:09;8.05;;;5.82;;
10244;SDS011;5167;52.164;10.530;2022-08-19T11:04:37;12.43;;;6.97;;
10244;SDS011;5167;52.164;10.530;2022-08-19T11:07:04;9.18;;;6.57;;
10244;SDS011;5167;52.164;10.530;2022-08-19T11:09:31;6.90;;;6.20;;
10244;SDS011;5167;52.164;10.530;2022-08-19T11:12:01;7.20;;;4.90;;
10244;SDS011;5167;52.164;10.530;2022-08-19T11:14:27;7.13;;;5.32;;
10244;SDS011;5167;52.164;10.530;2022-08-19T11:16:55;5.72;;;5.18;;
10244;SDS011;5167;52.164;10.530;2022-08-19T11:19:22;6.75;;;5.10;;
10244;SDS011;5167;52.164;10.530;2022-08-19T11:21:49;5.57;;;4.35;;
10244;SDS011;5167;52.164;10.530;2022-08-19T11:24:25;8.10;;;4.18;;
10244;SDS011;5167;52.164;10.530;2022-08-19T11:26:52;7.88;;;4.28;;
10244;SDS011;5167;52.164;10.530;2022-08-19T11:29:24;9.43;;;5.72;;
10244;SDS011;5167;52.164;10.530;2022-08-19T11:31:50;7.03;;;4.38;;
10244;SDS011;5167;52.164;10.530;2022-08-19T11:34:20;6.13;;;4.63;;
10244;SDS011;5167;52.164;10.530;2022-08-19T11:36:50;5.43;;;4.18;;
10244;SDS011;5167;52.164;10.530;2022-08-19T11:39:17;4.07;;;3.65;;
10244;SDS011;5167;52.164;10.530;2022-08-19T11:41:45;5.72;;;3.50;;
10244;SDS011;5167;52.164;10.530;2022-08-19T11:44:11;6.03;;;3.80;;
10244;SDS011;5167;52.164;10.530;2022-08-19T11:46:39;8.77;;;4.07;;
10244;SDS011;5167;52.164;10.530;2022-08-19T11:49:06;4.70;;;3.47;;
10244;SDS011;5167;52.164;10.530;2022-08-19T11:51:32;4.80;;;3.20;;
10244;SDS011;5167;52.164;10.530;2022-08-19T11:53:59;5.47;;;3.78;;
10244;SDS011;5167;52.164;10.530;2022-08-19T11:56:25;5.13;;;3.38;;
10244;SDS011;5167;52.164;10.530;2022-08-19T11:58:52;4.70;;;3.50;;
10244;SDS011;5167;52.164;10.530;2022-08-19T12:01:18;3.20;;;2.78;;
10244;SDS011;5167;52.164;10.530;2022-08-19T12:03:47;4.30;;;3.30;;
10244;SDS011;5167;52.164;10.530;2022-08-19T12:06:15;5.28;;;3.38;;
10244;SDS011;5167;52.164;10.530;2022-08-19T12:08:43;4.13;;;2.95;;
10244;SDS011;5167;52.164;10.530;2022-08-19T12:11:10;4.45;;;3.15;;
10244;SDS011;5167;52.164;10.530;2022-08-19T12:13:37;6.57;;;2.95;;
10244;SDS011;5167;52.164;10.530;2022-08-19T12:16:13;2.95;;;2.75;;
10244;SDS011;5167;52.164;10.530;2022-08-19T12:18:43;2.67;;;2.45;;
10244;SDS011;5167;52.164;10.530;2022-08-19T12:21:13;4.00;;;2.88;;
10244;SDS011;5167;52.164;10.530;2022-08-19T12:23:40;2.95;;;2.63;;
10244;SDS011;5167;52.164;10.530;2022-08-19T12:26:06;3.13;;;2.83;;
10244;SDS011;5167;52.164;10.530;2022-08-19T12:28:33;3.67;;;3.13;;
10244;SDS011;5167;52.164;10.530;2022-08-19T12:30:59;3.28;;;2.70;;
10244;SDS011;5167;52.164;10.530;2022-08-19T12:33:25;5.20;;;2.92;;
10244;SDS011;5167;52.164;10.530;2022-08-19T12:35:52;3.35;;;2.63;;
10244;SDS011;5167;52.164;10.530;2022-08-19T12:38:19;4.88;;;3.15;;
10244;SDS011;5167;52.164;10.530;2022-08-19T12:40:45;3.78;;;3.35;;
10244;SDS011;5167;52.164;10.530;2022-08-19T12:43:11;3.60;;;3.25;;
10244;SDS011;5167;52.164;10.530;2022-08-19T12:45:38;6.90;;;3.60;;
10244;SDS011;5167;52.164;10.530;2022-08-19T12:48:04;9.65;;;2.90;;
10244;SDS011;5167;52.164;10.530;2022-08-19T12:50:30;3.58;;;2.70;;
10244;SDS011;5167;52.164;10.530;2022-08-19T12:52:56;3.72;;;2.72;;
10244;SDS011;5167;52.164;10.530;2022-08-19T12:55:23;3.85;;;3.20;;
10244;SDS011;5167;52.164;10.530;2022-08-19T12:57:50;4.00;;;3.28;;
10244;SDS011;5167;52.164;10.530;2022-08-19T13:00:16;5.60;;;3.85;;
10244;SDS011;5167;52.164;10.530;2022-08-19T13:02:46;3.80;;;3.05;;
10244;SDS011;5167;52.164;10.530;2022-08-19T13:05:16;7.10;;;3.58;;
10244;SDS011;5167;52.164;10.530;2022-08-19T13:07:45;5.05;;;3.72;;
10244;SDS011;5167;52.164;10.530;2022-08-19T13:10:12;6.07;;;3.83;;
10244;SDS011;5167;52.164;10.530;2022-08-19T13:12:40;5.55;;;3.45;;
10244;SDS011;5167;52.164;10.530;2022-08-19T13:15:06;5.47;;;3.15;;
10244;SDS011;5167;52.164;10.530;2022-08-19T13:17:33;7.60;;;3.42;;
10244;SDS011;5167;52.164;10.530;2022-08-19T13:20:00;6.47;;;3.63;;
10244;SDS011;5167;52.164;10.530;2022-08-19T13:22:26;3.95;;;3.30;;
10244;SDS011;5167;52.164;10.530;2022-08-19T13:24:51;4.40;;;3.72;;
10244;SDS011;5167;52.164;10.530;2022-08-19T13:27:17;4.35;;;3.05;;
10244;SDS011;5167;52.164;10.530;2022-08-19T13:29:43;5.63;;;3.67;;
10244;SDS011;5167;52.164;10.530;2022-08-19T13:32:35;3.65;;;3.35;;
10244;SDS011;5167;52.164;10.530;2022-08-19T13:35:19;3.50;;;3.03;;
10244;SDS011;5167;52.164;10.530;2022-08-19T13:37:45;20.42;;;3.40;;
10244;SDS011;5167;52.164;10.530;2022-08-19T13:40:15;4.20;;;2.90;;
10244;SDS011;5167;52.164;10.530;2022-08-19T13:42:44;4.50;;;3.47;;
10244;SDS011;5167;52.164;10.530;2022-08-19T13:45:12;2.83;;;2.60;;
10244;SDS011;5167;52.164;10.530;2022-08-19T13:47:40;3.25;;;2.97;;
10244;SDS011;5167;52.164;10.530;2022-08-19T13:50:10;3.80;;;3.42;;
10244;SDS011;5167;52.164;10.530;2022-08-19T13:52:38;5.22;;;3.30;;
10244;SDS011;5167;52.164;10.530;2022-08-19T13:55:05;4.28;;;3.35;;
10244;SDS011;5167;52.164;10.530;2022-08-19T13:57:32;4.45;;;3.30;;
10244;SDS011;5167;52.164;10.530;2022-08-19T13:59:58;10.60;;;5.32;;
10244;SDS011;5167;52.164;10.530;2022-08-19T14:02:24;14.27;;;7.47;;
10244;SDS011;5167;52.164;10.530;2022-08-19T14:04:50;12.13;;;7.28;;
10244;SDS011;5167;52.164;10.530;2022-08-19T14:07:15;6.40;;;3.70;;
10244;SDS011;5167;52.164;10.530;2022-08-19T14:09:41;8.95;;;5.20;;
10244;SDS011;5167;52.164;10.530;2022-08-19T14:12:06;4.40;;;3.22;;
10244;SDS011;5167;52.164;10.530;2022-08-19T14:14:35;4.35;;;3.53;;
10244;SDS011;5167;52.164;10.530;2022-08-19T14:17:05;4.22;;;3.40;;
10244;SDS011;5167;52.164;10.530;2022-08-19T14:19:31;5.93;;;3.38;;
10244;SDS011;5167;52.164;10.530;2022-08-19T14:21:57;7.75;;;3.40;;
10244;SDS011;5167;52.164;10.530;2022-08-19T14:24:23;3.45;;;2.80;;
10244;SDS011;5167;52.164;10.530;2022-08-19T14:26:48;6.50;;;3.35;;
10244;SDS011;5167;52.164;10.530;2022-08-19T14:29:14;3.90;;;3.47;;
10244;SDS011;5167;52.164;10.530;2022-08-19T14:31:39;3.40;;;3.10;;
10244;SDS011;5167;52.164;10.530;2022-08-19T14:34:08;5.00;;;3.38;;
10244;SDS011;5167;52.164;10.530;2022-08-19T14:36:34;4.68;;;2.88;;
10244;SDS011;5167;52.164;10.530;2022-08-19T14:39:00;4.80;;;3.17;;
10244;SDS011;5167;52.164;10.530;2022-08-19T14:41:26;3.47;;;2.97;;
10244;SDS011;5167;52.164;10.530;2022-08-19T14:43:52;4.57;;;2.70;;
10244;SDS011;5167;52.164;10.530;2022-08-19T14:46:19;5.03;;;3.40;;
10244;SDS011;5167;52.164;10.530;2022-08-19T14:48:47;7.60;;;3.55;;
10244;SDS011;5167;52.164;10.530;2022-08-19T14:51:16;3.95;;;3.22;;
10244;SDS011;5167;52.164;10.530;2022-08-19T14:53:42;4.50;;;3.28;;
10244;SDS011;5167;52.164;10.530;2022-08-19T14:56:09;3.20;;;2.97;;
10244;SDS011;5167;52.164;10.530;2022-08-19T14:58:36;3.33;;;2.95;;
10244;SDS011;5167;52.164;10.530;2022-08-19T15:01:02;3.45;;;3.03;;
10244;SDS011;5167;52.164;10.530;2022-08-19T15:03:29;4.70;;;3.28;;
10244;SDS011;5167;52.164;10.530;2022-08-19T15:05:55;3.30;;;3.00;;